地図

経路データ

SID SEASON NUMBER BASIN SUBBASIN NAME ISO_TIME NATURE LAT LON WMO_WIND WMO_PRES WMO_AGENCY TRACK_TYPE DIST2LAND LANDFALL IFLAG USA_AGENCY USA_ATCF_ID USA_LAT USA_LON USA_RECORD USA_STATUS USA_WIND USA_PRES USA_SSHS USA_R34_NE USA_R34_SE USA_R34_SW USA_R34_NW USA_R50_NE USA_R50_SE USA_R50_SW USA_R50_NW USA_R64_NE USA_R64_SE USA_R64_SW USA_R64_NW USA_POCI USA_ROCI USA_RMW USA_EYE TOKYO_LAT TOKYO_LON TOKYO_GRADE TOKYO_WIND TOKYO_PRES TOKYO_R50_DIR TOKYO_R50_LONG TOKYO_R50_SHORT TOKYO_R30_DIR TOKYO_R30_LONG TOKYO_R30_SHORT TOKYO_LAND CMA_LAT CMA_LON CMA_CAT CMA_WIND CMA_PRES HKO_LAT HKO_LON HKO_CAT HKO_WIND HKO_PRES NEWDELHI_LAT NEWDELHI_LON NEWDELHI_GRADE NEWDELHI_WIND NEWDELHI_PRES NEWDELHI_CI NEWDELHI_DP NEWDELHI_POCI REUNION_LAT REUNION_LON REUNION_TYPE REUNION_WIND REUNION_PRES REUNION_TNUM REUNION_CI REUNION_RMW REUNION_R34_NE REUNION_R34_SE REUNION_R34_SW REUNION_R34_NW REUNION_R50_NE REUNION_R50_SE REUNION_R50_SW REUNION_R50_NW REUNION_R64_NE REUNION_R64_SE REUNION_R64_SW REUNION_R64_NW BOM_LAT BOM_LON BOM_TYPE BOM_WIND BOM_PRES BOM_TNUM BOM_CI BOM_RMW BOM_R34_NE BOM_R34_SE BOM_R34_SW BOM_R34_NW BOM_R50_NE BOM_R50_SE BOM_R50_SW BOM_R50_NW BOM_R64_NE BOM_R64_SE BOM_R64_SW BOM_R64_NW BOM_ROCI BOM_POCI BOM_EYE BOM_POS_METHOD BOM_PRES_METHOD NADI_LAT NADI_LON NADI_CAT NADI_WIND NADI_PRES WELLINGTON_LAT WELLINGTON_LON WELLINGTON_WIND WELLINGTON_PRES DS824_LAT DS824_LON DS824_STAGE DS824_WIND DS824_PRES TD9636_LAT TD9636_LON TD9636_STAGE TD9636_WIND TD9636_PRES TD9635_LAT TD9635_LON TD9635_WIND TD9635_PRES TD9635_ROCI NEUMANN_LAT NEUMANN_LON NEUMANN_CLASS NEUMANN_WIND NEUMANN_PRES MLC_LAT MLC_LON MLC_CLASS MLC_WIND MLC_PRES USA_GUST BOM_GUST BOM_GUST_PER REUNION_GUST REUNION_GUST_PER USA_SEAHGT USA_SEARAD_NE USA_SEARAD_SE USA_SEARAD_SW USA_SEARAD_NW STORM_SPEED STORM_DIR
1978298N13090 1978 114 NI BB NOT_NAMED 1978-10-25 00:00:00 TS 12.5000 90.3000 main 574 574 O________OO___ jtwc_io IO021978 12.5000 90.3000 XX 25 -5 12.5000 90.3000 TC 25 12.5000 90.3000 1 8 306
1978298N13090 1978 114 NI BB NOT_NAMED 1978-10-25 03:00:00 TS 12.7482 89.9533 main 584 584 P________PP___ IO021978 12.7526 89.9501 XX 25 -5 12.7526 89.9501 TC 25 12.7393 89.9597 1 8 306
1978298N13090 1978 114 NI BB NOT_NAMED 1978-10-25 06:00:00 TS 12.9942 89.6051 main 598 598 O________OP___ jtwc_io IO021978 13.0000 89.6000 XX 25 -5 13.0000 89.6000 TC 25 12.9827 89.6153 1 8 306
1978298N13090 1978 114 NI BB NOT_NAMED 1978-10-25 09:00:00 TS 13.2399 89.2544 main 613 613 P________PP___ IO021978 13.2425 89.2499 XX 27 -5 13.2425 89.2499 TC 27 13.2347 89.2633 1 9 306
1978298N13090 1978 114 NI BB NOT_NAMED 1978-10-25 12:00:00 TS 13.5000 88.9000 main 635 635 O________OO___ jtwc_io IO021978 13.5000 88.9000 XX 30 -5 13.5000 88.9000 TC 30 13.5000 88.9000 2 9 308
1978298N13090 1978 114 NI BB NOT_NAMED 1978-10-25 15:00:00 TS 13.7844 88.5418 main 660 642 P________PP___ IO021978 13.7850 88.5499 XX 30 -5 13.7850 88.5499 TC 30 13.7832 88.5256 2 9 311
1978298N13090 1978 114 NI BB NOT_NAMED 1978-10-25 18:00:00 TS 14.0967 88.1850 main 642 588 O________OP___ jtwc_io IO021978 14.1000 88.2000 XX 30 -5 14.1000 88.2000 TC 30 14.0902 88.1549 2 10 313
1978298N13090 1978 114 NI BB NOT_NAMED 1978-10-25 21:00:00 TS 14.4273 87.8256 main 588 533 P________PP___ IO021978 14.4275 87.8349 XX 32 -5 14.4275 87.8349 TC 32 14.4270 87.8068 2 10 317
1978298N13090 1978 114 NI BB NOT_NAMED 1978-10-26 00:00:00 TS 14.8000 87.5000 main 533 478 O________OO___ jtwc_io IO021978 14.8000 87.5000 XX 35 -5 14.8000 87.5000 TC 35 14.8000 87.5000 2 10 322
1978298N13090 1978 114 NI BB NOT_NAMED 1978-10-26 03:00:00 TS 15.2345 87.1814 main 478 416 P________PP___ IO021978 15.2350 87.2200 XX 35 -5 15.2350 87.2200 TC 35 15.2336 87.1044 2 11 328
1978298N13090 1978 114 NI BB NOT_NAMED 1978-10-26 06:00:00 TS 15.6995 86.9243 main 416 370 O________OP___ jtwc_io IO021978 15.7000 87.0000 XX 35 -5 15.7000 87.0000 TC 35 15.6985 86.7730 2 11 332
1978298N13090 1978 114 NI BB NOT_NAMED 1978-10-26 09:00:00 TS 16.1695 86.6737 main 362 330 P________PP___ IO021978 16.1722 86.7081 XX 35 -5 16.1722 86.7081 TC 35 16.1640 86.6049 2 9 346
1978298N13090 1978 114 NI BB NOT_NAMED 1978-10-26 12:00:00 TS 16.6000 86.7000 main 330 330 O________OO___ jtwc_io IO021978 16.6000 86.7000 XX 35 -5 16.6000 86.7000 TC 35 16.6000 86.7000 2 10 38
1978298N13090 1978 114 NI BB NOT_NAMED 1978-10-26 15:00:00 TS 16.9320 87.2955 main 356 351 P________PP___ IO021978 16.9153 87.2574 XX 35 -5 16.9153 87.2574 TC 35 16.9652 87.3717 2 15 66
1978298N13090 1978 114 NI BB NOT_NAMED 1978-10-26 18:00:00 TS 17.2312 88.1589 main 366 362 O________OP___ jtwc_io IO021978 17.2000 88.1000 XX 35 -5 17.2000 88.1000 TC 35 17.2937 88.2768 2 18 70
1978298N13090 1978 114 NI BB NOT_NAMED 1978-10-26 21:00:00 TS 17.5670 89.0956 main 390 390 P________PP___ IO021978 17.5509 89.0715 XX 35 -5 17.5509 89.0715 TC 35 17.5993 89.1439 2 16 66
1978298N13090 1978 114 NI BB NOT_NAMED 1978-10-27 00:00:00 TS 17.9000 89.7000 main 414 376 O________OO___ jtwc_io IO021978 17.9000 89.7000 XX 35 -5 17.9000 89.7000 TC 35 17.9000 89.7000 2 7 27
1978298N13090 1978 114 NI BB NOT_NAMED 1978-10-27 03:00:00 TS 18.2206 89.4490 main 368 306 P________PP___ IO021978 18.1998 89.4457 XX 35 -5 18.1998 89.4457 TC 35 18.2621 89.4557 2 10 308
1978298N13090 1978 114 NI BB NOT_NAMED 1978-10-27 06:00:00 TS 18.5398 88.8303 main 298 229 O________OP___ jtwc_io IO021978 18.5000 88.8000 XX 35 -5 18.5000 88.8000 TC 35 18.6193 88.8909 2 13 300
1978298N13090 1978 114 NI BB NOT_NAMED 1978-10-27 09:00:00 TS 18.8906 88.2254 main 221 168 P________PP___ IO021978 18.8653 88.2105 XX 37 -5 18.8653 88.2105 TC 37 18.9412 88.2551 2 12 304
1978298N13090 1978 114 NI BB NOT_NAMED 1978-10-27 12:00:00 TS 19.2000 87.8000 main 168 145 O________OO___ jtwc_io IO021978 19.2000 87.8000 XX 40 -5 19.2000 87.8000 TC 40 19.2000 87.8000 1 7 322
1978298N13090 1978 114 NI BB NOT_NAMED 1978-10-27 15:00:00 TS 19.4275 87.7776 main 152 145 P________PP___ IO021978 19.4521 87.8070 XX 40 -5 19.4521 87.8070 TC 40 19.3781 87.7188 1 4 33
1978298N13090 1978 114 NI BB NOT_NAMED 1978-10-27 18:00:00 TS 19.5634 88.0547 main 165 165 O________OP___ jtwc_io IO021978 19.6000 88.1000 XX 40 -5 19.6000 88.1000 TC 40 19.4901 87.9641 1 7 75
1978298N13090 1978 114 NI BB NOT_NAMED 1978-10-27 21:00:00 TS 19.6076 88.4910 main 199 199 P________PP___ IO021978 19.6329 88.5228 XX 37 -5 19.6329 88.5228 TC 37 19.5570 88.4274 1 9 88
1978298N13090 1978 114 NI BB NOT_NAMED 1978-10-28 00:00:00 TS 19.6000 89.0000 main 223 O________OO___ jtwc_io IO021978 19.6000 89.0000 XX 35 -5 19.6000 89.0000 TC 35 19.6000 89.0000 1 10 91

IBTrACS Databaseについて

本データベースは、米国NOAAが公開する1842年以降の世界の熱帯低気圧のベストトラックデータアーカイブInternational Best Track Archive for Climate Stewardship (IBTrACS)を、ウェブで閲覧しやすい形式に変換したものです。

最終更新日:2021-10-21